createdAt,value
2019-05-30T00:00:54.080Z,101499.06
2019-05-30T00:03:27.518Z,101495.52
2019-05-30T00:06:00.905Z,101501.63
2019-05-30T00:08:34.297Z,101495.47
2019-05-30T00:11:07.780Z,101491.97
2019-05-30T00:13:41.201Z,101495.44
2019-05-30T00:16:14.608Z,101494.59
2019-05-30T00:18:48.041Z,101494.58
2019-05-30T00:21:21.433Z,101501.20
2019-05-30T00:23:55.773Z,101499.03
2019-05-30T00:26:29.316Z,101496.42
2019-05-30T00:29:02.781Z,101492.09
2019-05-30T00:31:36.187Z,101495.59
2019-05-30T00:34:09.593Z,101500.40
2019-05-30T00:36:43.014Z,101498.20
2019-05-30T00:39:16.431Z,101497.34
2019-05-30T00:41:49.847Z,101498.23
2019-05-30T00:44:23.260Z,101503.52
2019-05-30T00:46:57.851Z,101498.30
2019-05-30T00:49:31.482Z,101505.25
2019-05-30T00:52:05.194Z,101497.84
2019-05-30T00:54:38.656Z,101503.52
2019-05-30T00:57:12.285Z,101505.73
2019-05-30T00:59:45.723Z,101505.74
2019-05-30T01:02:19.185Z,101494.78
2019-05-30T01:04:52.611Z,101494.77
2019-05-30T01:07:26.034Z,101493.03
2019-05-30T01:09:59.512Z,101483.84
2019-05-30T01:12:32.909Z,101488.16
2019-05-30T01:15:10.599Z,101493.44
2019-05-30T01:17:44.015Z,101489.50
2019-05-30T01:20:18.684Z,101490.81
2019-05-30T01:22:52.146Z,101490.83
2019-05-30T01:25:25.570Z,101489.97
2019-05-30T01:27:59.509Z,101482.95
2019-05-30T01:30:32.973Z,101487.76
2019-05-30T01:33:07.638Z,101479.02
2019-05-30T01:35:41.455Z,101475.52
2019-05-30T01:38:14.859Z,101476.83
2019-05-30T01:40:48.280Z,101477.70
2019-05-30T01:43:21.663Z,101479.92
2019-05-30T01:45:55.084Z,101486.06
2019-05-30T01:48:29.580Z,101478.59
2019-05-30T01:51:03.013Z,101469.38
2019-05-30T01:53:36.482Z,101479.41
2019-05-30T01:56:09.903Z,101475.48
2019-05-30T01:58:43.305Z,101481.17
2019-05-30T02:01:24.294Z,101477.25
2019-05-30T02:03:51.824Z,101480.34
2019-05-30T02:06:25.250Z,101477.73
2019-05-30T02:08:59.136Z,101475.55
2019-05-30T02:11:32.750Z,101477.29
2019-05-30T02:14:06.153Z,101468.96
2019-05-30T02:16:39.572Z,101466.30
2019-05-30T02:19:12.979Z,101468.49
2019-05-30T02:21:46.394Z,101468.06
2019-05-30T02:24:19.794Z,101473.73
2019-05-30T02:26:53.221Z,101471.13
2019-05-30T02:29:26.682Z,101473.77
2019-05-30T02:32:01.072Z,101471.61
2019-05-30T02:34:35.225Z,101478.59
2019-05-30T02:37:10.769Z,101480.36
2019-05-30T02:39:43.764Z,101487.36
2019-05-30T02:42:17.202Z,101485.19
2019-05-30T02:44:50.585Z,101485.63
2019-05-30T02:47:23.997Z,101491.73
2019-05-30T02:49:57.393Z,101492.60
2019-05-30T02:52:30.824Z,101498.31
2019-05-30T02:55:06.662Z,101498.72
2019-05-30T02:57:39.907Z,101501.78
2019-05-30T03:00:17.488Z,101498.30
2019-05-30T03:02:48.992Z,101511.39
2019-05-30T03:05:22.410Z,101510.51
2019-05-30T03:07:56.166Z,101511.83
2019-05-30T03:10:29.741Z,101511.81
2019-05-30T03:13:04.110Z,101514.44
2019-05-30T03:15:38.352Z,101512.23
2019-05-30T03:18:12.873Z,101517.02
2019-05-30T03:20:47.209Z,101515.70
2019-05-30T03:23:20.698Z,101520.91
2019-05-30T03:25:54.120Z,101522.21
2019-05-30T03:28:27.973Z,101521.33
2019-05-30T03:31:05.924Z,101525.27
2019-05-30T03:33:42.002Z,101521.74
2019-05-30T03:36:23.914Z,101527.77
2019-05-30T03:38:48.456Z,101535.64
2019-05-30T03:41:21.942Z,101531.68
2019-05-30T03:43:55.402Z,101529.06
2019-05-30T03:46:31.873Z,101537.83
2019-05-30T03:49:09.115Z,101546.14
2019-05-30T03:51:45.326Z,101545.72
2019-05-30T03:54:19.878Z,101546.17
2019-05-30T03:57:02.492Z,101549.24
2019-05-30T03:59:44.675Z,101544.42
2019-05-30T04:02:33.157Z,101551.85
2019-05-30T04:05:09.674Z,101555.81
2019-05-30T04:07:50.154Z,101561.05
2019-05-30T04:10:26.611Z,101556.73
2019-05-30T04:13:27.174Z,101563.73
2019-05-30T04:16:00.601Z,101559.83
2019-05-30T04:18:34.001Z,101569.02
2019-05-30T04:21:08.514Z,101568.55
2019-05-30T04:23:42.376Z,101570.36
2019-05-30T04:26:16.141Z,101567.36
2019-05-30T04:28:50.962Z,101571.30
2019-05-30T04:31:24.385Z,101571.31
2019-05-30T04:33:57.828Z,101572.17
2019-05-30T04:36:31.237Z,101580.56
2019-05-30T04:39:08.633Z,101573.55
2019-05-30T04:41:42.274Z,101567.88
2019-05-30T04:44:16.356Z,101567.36
2019-05-30T04:46:50.903Z,101567.19
2019-05-30T04:49:24.301Z,101570.69
2019-05-30T04:51:57.790Z,101568.05
2019-05-30T04:54:31.161Z,101560.88
2019-05-30T04:57:04.662Z,101557.67
2019-05-30T04:59:38.077Z,101564.17
2019-05-30T05:02:13.516Z,101565.73
2019-05-30T05:04:46.599Z,101564.25
2019-05-30T05:07:20.029Z,101563.93
2019-05-30T05:09:53.438Z,101561.95
2019-05-30T05:12:26.830Z,101562.80
2019-05-30T05:15:00.237Z,101565.20
2019-05-30T05:17:33.678Z,101562.39
2019-05-30T05:20:10.350Z,101566.23
2019-05-30T05:22:43.755Z,101567.11
2019-05-30T05:25:17.488Z,101572.08
2019-05-30T05:27:50.948Z,101577.20
2019-05-30T05:30:24.511Z,101572.88
2019-05-30T05:32:57.921Z,101570.39
2019-05-30T05:35:31.334Z,101577.77
2019-05-30T05:38:04.809Z,101580.02
2019-05-30T05:40:38.237Z,101571.15
2019-05-30T05:43:11.671Z,101578.57
2019-05-30T05:45:45.124Z,101575.22
2019-05-30T05:48:20.485Z,101575.95
2019-05-30T05:50:53.914Z,101569.45
2019-05-30T05:53:27.332Z,101580.00
2019-05-30T05:56:00.710Z,101566.63
2019-05-30T05:58:34.124Z,101578.23
2019-05-30T06:01:07.504Z,101577.19
2019-05-30T06:03:40.930Z,101580.25
2019-05-30T06:06:14.416Z,101587.06
2019-05-30T06:08:47.797Z,101583.53
2019-05-30T06:11:21.199Z,101583.73
2019-05-30T06:13:54.611Z,101582.55
2019-05-30T06:16:28.416Z,101585.99
2019-05-30T06:19:01.898Z,101582.57
2019-05-30T06:21:35.301Z,101587.74
2019-05-30T06:24:08.736Z,101593.69
2019-05-30T06:26:43.657Z,101593.00
2019-05-30T06:29:17.970Z,101593.90
2019-05-30T06:31:51.579Z,101594.55
2019-05-30T06:34:35.959Z,101595.67
2019-05-30T06:37:00.236Z,101604.27
2019-05-30T06:39:33.712Z,101599.16
2019-05-30T06:42:07.304Z,101601.14
2019-05-30T06:44:40.709Z,101606.81
2019-05-30T06:47:14.201Z,101609.87
2019-05-30T06:49:47.608Z,101608.36
2019-05-30T06:52:29.177Z,101608.85
2019-05-30T06:55:02.671Z,101606.38
2019-05-30T06:57:36.085Z,101613.80
2019-05-30T07:00:09.846Z,101608.23
2019-05-30T07:02:43.291Z,101601.70
2019-05-30T07:05:17.707Z,101604.25
2019-05-30T07:07:51.625Z,101608.07
2019-05-30T07:10:26.800Z,101611.12
2019-05-30T07:13:00.296Z,101609.45
2019-05-30T07:15:34.382Z,101614.09
2019-05-30T07:18:07.924Z,101612.66
2019-05-30T07:20:41.321Z,101609.98
2019-05-30T07:23:14.734Z,101614.70
2019-05-30T07:25:48.164Z,101619.44
2019-05-30T07:28:21.652Z,101621.14
2019-05-30T07:30:55.152Z,101618.67
2019-05-30T07:33:28.572Z,101621.24
2019-05-30T07:36:02.808Z,101612.29
2019-05-30T07:38:36.283Z,101615.91
2019-05-30T07:41:09.788Z,101616.11
2019-05-30T07:43:43.223Z,101619.22
2019-05-30T07:46:16.722Z,101618.81
2019-05-30T07:48:50.133Z,101619.14
2019-05-30T07:51:24.532Z,101615.34
2019-05-30T07:53:58.035Z,101615.59
2019-05-30T07:56:31.452Z,101613.91
2019-05-30T07:59:04.989Z,101618.28
2019-05-30T08:01:39.654Z,101608.50
2019-05-30T08:04:13.317Z,101610.42
2019-05-30T08:06:46.749Z,101613.87
2019-05-30T08:09:20.140Z,101604.19
2019-05-30T08:11:54.045Z,101603.34
2019-05-30T08:14:27.453Z,101608.88
2019-05-30T08:17:00.907Z,101607.31
2019-05-30T08:19:34.467Z,101609.40
2019-05-30T08:22:07.805Z,101607.30
2019-05-30T08:24:41.231Z,101608.48
2019-05-30T08:27:14.638Z,101606.51
2019-05-30T08:29:48.055Z,101598.64
2019-05-30T08:32:21.480Z,101604.22
2019-05-30T08:34:54.860Z,101608.92
2019-05-30T08:37:28.922Z,101603.42
2019-05-30T08:40:02.358Z,101603.37
2019-05-30T08:42:35.793Z,101595.95
2019-05-30T08:45:10.451Z,101598.42
2019-05-30T08:47:44.008Z,101594.56
2019-05-30T08:50:17.859Z,101597.76
2019-05-30T08:52:51.310Z,101597.37
2019-05-30T08:55:24.710Z,101590.58
2019-05-30T08:57:58.133Z,101589.88
2019-05-30T09:00:31.686Z,101580.06
2019-05-30T09:03:05.627Z,101579.55
2019-05-30T09:05:55.555Z,101575.63
2019-05-30T09:08:14.195Z,101579.45
2019-05-30T09:10:47.585Z,101566.47
2019-05-30T09:13:21.072Z,101567.12
2019-05-30T09:15:54.596Z,101569.48
2019-05-30T09:18:27.993Z,101564.57
2019-05-30T09:21:01.434Z,101552.22
2019-05-30T09:23:34.865Z,101556.34
2019-05-30T09:26:08.363Z,101555.86
2019-05-30T09:28:42.221Z,101554.03
2019-05-30T09:31:15.761Z,101553.67
2019-05-30T09:33:49.154Z,101548.61
2019-05-30T09:36:22.604Z,101554.03
2019-05-30T09:38:56.058Z,101549.94
2019-05-30T09:41:29.489Z,101550.92
2019-05-30T09:44:02.923Z,101547.31
2019-05-30T09:46:36.435Z,101546.94
2019-05-30T09:49:09.872Z,101542.88
2019-05-30T09:51:44.135Z,101545.52
2019-05-30T09:54:18.566Z,101539.13
2019-05-30T09:56:53.132Z,101548.55
2019-05-30T09:59:26.984Z,101547.48
2019-05-30T10:02:00.463Z,101551.45
2019-05-30T10:04:33.867Z,101543.48
2019-05-30T10:07:07.274Z,101545.50
2019-05-30T10:09:40.701Z,101534.03
2019-05-30T10:12:14.146Z,101541.10
2019-05-30T10:14:48.617Z,101535.49
2019-05-30T10:17:22.337Z,101544.21
2019-05-30T10:19:57.234Z,101537.45
2019-05-30T10:22:30.953Z,101532.20
2019-05-30T10:25:06.016Z,101533.45
2019-05-30T10:27:39.428Z,101534.14
2019-05-30T10:30:13.886Z,101535.49
2019-05-30T10:32:48.562Z,101531.84
2019-05-30T10:35:22.698Z,101535.08
2019-05-30T10:37:56.858Z,101529.05
2019-05-30T10:40:32.201Z,101528.45
2019-05-30T10:43:08.462Z,101529.11
2019-05-30T10:45:40.909Z,101528.22
2019-05-30T10:48:14.339Z,101512.17
2019-05-30T10:50:48.535Z,101515.95
2019-05-30T10:53:22.115Z,101520.94
2019-05-30T10:55:56.513Z,101524.19
2019-05-30T10:58:29.994Z,101520.02
2019-05-30T11:01:03.657Z,101523.07
2019-05-30T11:03:37.215Z,101517.89
2019-05-30T11:06:19.469Z,101512.16
2019-05-30T11:08:55.098Z,101513.62
2019-05-30T11:11:28.528Z,101520.78
2019-05-30T11:14:01.932Z,101524.09
2019-05-30T11:16:35.405Z,101522.80
2019-05-30T11:19:08.834Z,101516.16
2019-05-30T11:21:42.247Z,101514.56
2019-05-30T11:24:15.677Z,101515.62
2019-05-30T11:26:50.978Z,101506.80
2019-05-30T11:29:24.286Z,101512.92
2019-05-30T11:31:58.839Z,101506.46
2019-05-30T11:34:32.404Z,101509.28
2019-05-30T11:37:18.646Z,101508.92
2019-05-30T11:39:40.982Z,101511.72
2019-05-30T11:42:14.364Z,101512.65
2019-05-30T11:44:47.805Z,101516.39
2019-05-30T11:47:21.193Z,101514.02
2019-05-30T11:49:55.666Z,101514.02
2019-05-30T11:52:29.299Z,101516.49
2019-05-30T11:55:02.738Z,101511.45
2019-05-30T11:57:36.216Z,101512.61
2019-05-30T12:00:10.343Z,101507.39
2019-05-30T12:02:43.721Z,101506.45
2019-05-30T12:05:17.697Z,101507.41
2019-05-30T12:07:51.169Z,101505.24
2019-05-30T12:10:25.729Z,101508.09
2019-05-30T12:12:59.499Z,101509.13
2019-05-30T12:15:33.144Z,101510.47
2019-05-30T12:18:06.566Z,101499.34
2019-05-30T12:20:40.466Z,101502.66
2019-05-30T12:23:13.929Z,101501.87
2019-05-30T12:25:47.350Z,101506.69
2019-05-30T12:28:20.780Z,101499.81
2019-05-30T12:30:59.451Z,101493.84
2019-05-30T12:33:29.414Z,101496.32
2019-05-30T12:36:02.870Z,101493.20
2019-05-30T12:38:36.273Z,101493.60
2019-05-30T12:41:09.692Z,101493.75
2019-05-30T12:43:43.091Z,101489.65
2019-05-30T12:46:16.580Z,101487.59
2019-05-30T12:48:50.086Z,101491.63
2019-05-30T12:51:23.527Z,101490.70
2019-05-30T12:53:56.919Z,101494.48
2019-05-30T12:56:30.353Z,101498.70
2019-05-30T12:59:03.898Z,101499.60
2019-05-30T13:01:37.342Z,101497.38
2019-05-30T13:04:10.754Z,101492.96
2019-05-30T13:06:44.177Z,101490.85
2019-05-30T13:09:17.634Z,101497.63
2019-05-30T13:11:51.075Z,101500.54
2019-05-30T13:14:24.468Z,101500.45
2019-05-30T13:16:57.966Z,101507.55
2019-05-30T13:19:31.445Z,101507.38
2019-05-30T13:22:04.898Z,101501.06
2019-05-30T13:24:38.292Z,101499.82
2019-05-30T13:27:11.726Z,101499.28
2019-05-30T13:29:46.128Z,101501.00
2019-05-30T13:32:19.549Z,101503.84
2019-05-30T13:34:52.952Z,101504.31
2019-05-30T13:37:26.357Z,101499.77
2019-05-30T13:39:59.764Z,101502.09
2019-05-30T13:42:33.185Z,101500.92
2019-05-30T13:45:08.533Z,101509.70
2019-05-30T13:47:41.969Z,101511.06
2019-05-30T13:50:15.775Z,101509.66
2019-05-30T13:52:49.211Z,101510.91
2019-05-30T13:55:22.679Z,101501.38
2019-05-30T13:57:56.184Z,101495.34
2019-05-30T14:00:29.655Z,101502.74
2019-05-30T14:03:04.086Z,101497.06
2019-05-30T14:05:37.579Z,101502.30
2019-05-30T14:08:16.449Z,101504.22
2019-05-30T14:10:46.160Z,101504.05
2019-05-30T14:13:19.600Z,101497.39
2019-05-30T14:15:53.141Z,101501.97
2019-05-30T14:18:26.543Z,101514.44
2019-05-30T14:21:01.859Z,101508.81
2019-05-30T14:23:35.105Z,101504.56
2019-05-30T14:26:09.457Z,101506.34
2019-05-30T14:28:42.955Z,101505.47
2019-05-30T14:31:16.375Z,101504.27
2019-05-30T14:33:49.787Z,101504.98
2019-05-30T14:36:23.225Z,101508.50
2019-05-30T14:38:58.655Z,101509.59
2019-05-30T14:41:31.784Z,101511.14
2019-05-30T14:44:05.431Z,101511.73
2019-05-30T14:46:38.828Z,101514.94
2019-05-30T14:49:12.745Z,101511.76
2019-05-30T14:51:46.217Z,101514.23
2019-05-30T14:54:19.629Z,101515.78
2019-05-30T14:56:53.050Z,101510.19
2019-05-30T14:59:26.457Z,101521.09
2019-05-30T15:01:59.858Z,101522.11
2019-05-30T15:04:33.329Z,101514.45
2019-05-30T15:07:07.412Z,101522.63
2019-05-30T15:09:42.575Z,101515.91
2019-05-30T15:12:16.930Z,101516.77
2019-05-30T15:14:50.403Z,101514.44
2019-05-30T15:17:23.817Z,101512.67
2019-05-30T15:19:57.268Z,101508.94
2019-05-30T15:22:30.661Z,101504.88
2019-05-30T15:25:05.950Z,101509.98
2019-05-30T15:27:39.434Z,101511.55
2019-05-30T15:30:15.111Z,101504.87
2019-05-30T15:32:48.527Z,101508.81
2019-05-30T15:35:22.024Z,101512.28
2019-05-30T15:37:55.442Z,101508.33
2019-05-30T15:40:28.994Z,101510.66
2019-05-30T15:43:02.548Z,101514.63
2019-05-30T15:45:36.040Z,101508.20
2019-05-30T15:48:10.308Z,101507.52
2019-05-30T15:50:43.838Z,101506.45
2019-05-30T15:53:17.377Z,101505.36
2019-05-30T15:55:50.779Z,101506.12
2019-05-30T15:58:24.224Z,101503.56
2019-05-30T16:00:57.648Z,101502.56
2019-05-30T16:03:31.051Z,101499.39
2019-05-30T16:06:04.537Z,101499.94
2019-05-30T16:08:37.928Z,101510.69
2019-05-30T16:11:11.359Z,101506.48
2019-05-30T16:13:44.772Z,101509.98
2019-05-30T16:16:36.057Z,101507.23
2019-05-30T16:18:53.340Z,101502.91
2019-05-30T16:21:26.766Z,101505.66
2019-05-30T16:24:00.159Z,101509.38
2019-05-30T16:26:33.595Z,101503.39
2019-05-30T16:29:07.091Z,101504.97
2019-05-30T16:31:40.607Z,101500.85
2019-05-30T16:34:14.020Z,101504.76
2019-05-30T16:36:47.459Z,101500.72
2019-05-30T16:39:20.871Z,101496.69
2019-05-30T16:41:54.672Z,101496.94
2019-05-30T16:44:28.106Z,101488.08
2019-05-30T16:47:01.504Z,101492.13
2019-05-30T16:49:34.926Z,101498.05
2019-05-30T16:52:08.387Z,101488.09
2019-05-30T16:54:42.049Z,101486.46
2019-05-30T16:57:16.463Z,101485.52
2019-05-30T16:59:49.987Z,101494.97
2019-05-30T17:02:23.403Z,101496.77
2019-05-30T17:04:56.843Z,101491.37
2019-05-30T17:07:30.300Z,101481.55
2019-05-30T17:10:20.892Z,101489.88
2019-05-30T17:12:40.398Z,101495.63
2019-05-30T17:15:15.610Z,101480.23
2019-05-30T17:17:49.259Z,101485.03
2019-05-30T17:20:23.178Z,101490.76
2019-05-30T17:22:56.700Z,101490.69
2019-05-30T17:25:30.110Z,101489.65
2019-05-30T17:28:03.624Z,101492.44
2019-05-30T17:30:37.104Z,101493.49
2019-05-30T17:33:10.538Z,101487.97
2019-05-30T17:35:44.303Z,101493.11
2019-05-30T17:38:18.466Z,101495.31
2019-05-30T17:40:51.906Z,101491.23
2019-05-30T17:43:25.364Z,101485.95
2019-05-30T17:45:58.778Z,101487.34
2019-05-30T17:48:32.220Z,101487.09
2019-05-30T17:51:05.697Z,101482.80
2019-05-30T17:53:39.146Z,101484.39
2019-05-30T17:56:12.537Z,101490.59
2019-05-30T17:58:45.968Z,101492.66
2019-05-30T18:01:20.223Z,101493.55
2019-05-30T18:03:53.631Z,101507.20
2019-05-30T18:06:27.032Z,101503.50
2019-05-30T18:09:00.514Z,101501.87
2019-05-30T18:11:34.042Z,101503.98
2019-05-30T18:14:07.538Z,101503.94
2019-05-30T18:16:40.968Z,101506.66
2019-05-30T18:19:14.503Z,101504.00
2019-05-30T18:21:48.016Z,101503.47
2019-05-30T18:24:21.457Z,101511.17
2019-05-30T18:26:54.837Z,101513.16
2019-05-30T18:29:28.250Z,101509.80
2019-05-30T18:32:01.665Z,101511.36
2019-05-30T18:34:35.077Z,101513.23
2019-05-30T18:37:08.503Z,101513.41
2019-05-30T18:39:41.897Z,101518.66
2019-05-30T18:42:15.413Z,101522.30
2019-05-30T18:44:48.848Z,101518.13
2019-05-30T18:47:22.968Z,101519.30
2019-05-30T18:49:57.909Z,101521.41
2019-05-30T18:52:32.555Z,101524.95
2019-05-30T18:55:08.196Z,101530.66
2019-05-30T18:57:41.638Z,101527.89
2019-05-30T19:00:16.991Z,101522.80
2019-05-30T19:02:50.422Z,101522.69
2019-05-30T19:05:24.472Z,101534.16
2019-05-30T19:07:57.905Z,101530.04
2019-05-30T19:10:32.164Z,101531.70
2019-05-30T19:13:05.776Z,101531.12
2019-05-30T19:15:39.190Z,101533.26
2019-05-30T19:18:12.635Z,101532.12
2019-05-30T19:20:46.059Z,101534.61
2019-05-30T19:23:19.489Z,101536.67
2019-05-30T19:25:52.902Z,101531.63
2019-05-30T19:28:28.533Z,101534.51
2019-05-30T19:31:02.059Z,101539.55
2019-05-30T19:33:35.479Z,101542.06
2019-05-30T19:36:08.883Z,101550.39
2019-05-30T19:38:42.309Z,101561.19
2019-05-30T19:41:15.711Z,101561.19
2019-05-30T19:43:49.207Z,101566.39
2019-05-30T19:46:22.644Z,101563.84
2019-05-30T19:48:56.073Z,101569.31
2019-05-30T19:51:31.329Z,101570.34
2019-05-30T19:54:04.765Z,101572.87
2019-05-30T19:56:40.834Z,101574.02
2019-05-30T19:59:13.339Z,101573.25
2019-05-30T20:01:46.739Z,101576.59
2019-05-30T20:04:20.189Z,101577.23
2019-05-30T20:06:53.654Z,101579.89
2019-05-30T20:09:27.119Z,101580.95
2019-05-30T20:12:03.990Z,101587.20
2019-05-30T20:14:35.688Z,101587.39
2019-05-30T20:17:09.451Z,101595.84
2019-05-30T20:19:42.890Z,101597.09
2019-05-30T20:22:16.274Z,101592.91
2019-05-30T20:24:49.674Z,101593.56
2019-05-30T20:27:23.071Z,101595.58
2019-05-30T20:29:56.879Z,101595.86
2019-05-30T20:32:30.391Z,101598.00
2019-05-30T20:35:04.482Z,101599.30
2019-05-30T20:37:38.734Z,101597.36
2019-05-30T20:40:13.027Z,101595.73
2019-05-30T20:42:47.097Z,101607.27
2019-05-30T20:45:20.906Z,101611.14
2019-05-30T20:47:54.317Z,101614.48
2019-05-30T20:50:27.909Z,101611.05
2019-05-30T20:53:01.327Z,101610.45
2019-05-30T20:55:34.775Z,101618.06
2019-05-30T20:58:08.184Z,101619.05
2019-05-30T21:00:42.244Z,101617.72
2019-05-30T21:03:15.845Z,101622.09
2019-05-30T21:05:49.461Z,101621.30
2019-05-30T21:08:23.611Z,101627.55
2019-05-30T21:10:58.662Z,101626.80
2019-05-30T21:13:36.208Z,101626.85
2019-05-30T21:16:13.248Z,101623.02
2019-05-30T21:18:46.738Z,101630.53
2019-05-30T21:21:20.316Z,101623.91
2019-05-30T21:23:53.729Z,101629.30
2019-05-30T21:26:27.161Z,101627.63
2019-05-30T21:29:00.835Z,101632.09
2019-05-30T21:31:34.287Z,101628.12
2019-05-30T21:34:07.762Z,101637.09
2019-05-30T21:36:41.939Z,101630.56
2019-05-30T21:39:15.430Z,101628.50
2019-05-30T21:41:48.942Z,101632.55
2019-05-30T21:44:22.343Z,101637.37
2019-05-30T21:46:55.793Z,101633.39
2019-05-30T21:49:29.192Z,101636.25
2019-05-30T21:52:02.688Z,101634.39
2019-05-30T21:54:36.077Z,101636.78
2019-05-30T21:57:09.494Z,101634.48
2019-05-30T21:59:44.078Z,101635.95
2019-05-30T22:02:17.892Z,101641.68
2019-05-30T22:04:51.266Z,101642.66
2019-05-30T22:07:24.843Z,101645.66
2019-05-30T22:09:58.245Z,101640.66
2019-05-30T22:12:31.646Z,101645.03
2019-05-30T22:15:06.676Z,101642.92
2019-05-30T22:17:40.165Z,101641.25
2019-05-30T22:20:14.015Z,101643.98
2019-05-30T22:22:48.175Z,101645.45
2019-05-30T22:25:21.625Z,101644.61
2019-05-30T22:27:55.039Z,101641.61
2019-05-30T22:30:28.440Z,101638.03
2019-05-30T22:33:01.874Z,101636.31
2019-05-30T22:35:36.164Z,101636.31
2019-05-30T22:38:09.572Z,101632.47
2019-05-30T22:40:43.744Z,101629.83
2019-05-30T22:43:25.366Z,101633.53
2019-05-30T22:45:52.743Z,101636.84
2019-05-30T22:48:26.153Z,101632.66
2019-05-30T22:50:59.627Z,101630.53
2019-05-30T22:53:33.066Z,101631.05
2019-05-30T22:56:06.470Z,101635.47
2019-05-30T22:58:39.893Z,101638.59
2019-05-30T23:01:13.375Z,101642.64
2019-05-30T23:03:47.193Z,101634.19
2019-05-30T23:06:20.596Z,101633.61
2019-05-30T23:08:54.913Z,101638.52
2019-05-30T23:11:28.507Z,101640.36
2019-05-30T23:14:01.937Z,101646.53
2019-05-30T23:16:35.336Z,101641.68
2019-05-30T23:19:08.768Z,101647.02
2019-05-30T23:21:42.189Z,101646.66
2019-05-30T23:24:15.616Z,101643.41
2019-05-30T23:26:49.436Z,101644.69
2019-05-30T23:29:22.945Z,101639.60
2019-05-30T23:31:56.361Z,101641.84
2019-05-30T23:34:29.791Z,101643.16
2019-05-30T23:37:03.184Z,101647.17
2019-05-30T23:39:36.643Z,101644.20
2019-05-30T23:42:10.065Z,101640.56
2019-05-30T23:44:43.470Z,101642.30
2019-05-30T23:47:16.914Z,101638.22
2019-05-30T23:49:51.655Z,101641.38
2019-05-30T23:52:25.138Z,101638.84
2019-05-30T23:54:58.558Z,101637.96
2019-05-30T23:57:31.933Z,101630.47
